Geervliet — PCLI — position and weather

sailwx.info

Track history (hours):
 
Tides and Currents Weather Stations Pressure Air Temp Water Temp Dewpoint Dewpoint Depression Visibility Wind Speed Wind Dir Waves Ship Positions

Geervliet

Last reported at 2015-Apr-21 07:30 UTC. Time now 2015-Apr-21 11:37 UTC.
Position N 53°42' W 000°40'.

Length 86 m; draft 4.7 m.

Type: Cargo ship. MMSI: 246803000.

Date/timePositionNaut miles runAvg speedWind from/ knotsBaromVisibWave heightAir tempDewpointWater temp
2015-Apr-21 07:30N 53°42' W 000°40'7 7.2
2015-Apr-21 06:32N 53°42' W 000°28'8 8.6
2015-Apr-21 05:34N 53°43' W 000°14'9 8.7
2015-Apr-21 04:33N 53°37' W 000°04'8 8.4
2015-Apr-21 03:33N 53°33' E 000°09'5 4.7
2015-Apr-21 02:33N 53°32' E 000°17'5 5.2
2015-Apr-21 01:33N 53°30' E 000°25'6 5.8
2015-Apr-21 00:33N 53°28' E 000°34'6 6.1
2015-Apr-20 23:32N 53°26' E 000°44'7 6.5
2015-Apr-20 22:26N 53°23' E 000°55'6 5.9
2015-Apr-20 21:26N 53°19' E 001°03'5 5.5
2015-Apr-20 20:33N 53°17' E 001°10'5 4.7
2015-Apr-20 19:33N 53°15' E 001°17'5 4.8
2015-Apr-20 18:33N 53°13' E 001°24'6 5.8
2015-Apr-20 17:33N 53°10' E 001°33'6 6.5
2015-Apr-20 16:33N 53°08' E 001°43'7 7.3
2015-Apr-20 15:33N 53°05' E 001°54'8 7.6
2015-Apr-20 14:33N 52°59' E 002°03'7 7.2
2015-Apr-20 13:33N 52°53' E 002°09'7 7.3
2015-Apr-20 12:33N 52°46' E 002°12'9 8.6
2015-Apr-20 11:33N 52°38' E 002°14'8 7.7
2015-Apr-20 10:33N 52°30' E 002°13'7 7.3
2015-Apr-20 09:33N 52°23' E 002°13'7 7.3
2015-Apr-20 08:33N 52°15' E 002°12'8 8.2
2015-Apr-20 07:33N 52°07' E 002°11'10 9.5
2015-Apr-20 06:33N 51°58' E 002°10'1010.3
2015-Apr-20 05:33N 51°48' E 002°06'1111.0
2015-Apr-20 04:33N 51°38' E 001°58'1111.3
2015-Apr-20 03:33N 51°28' E 001°49'1211.9
2015-Apr-20 02:33N 51°17' E 001°41'1110.8
2015-Apr-20 01:34N 51°06' E 001°40'1312.9
2015-Apr-20 00:32N 50°57' E 001°26'1212.0
2015-Apr-19 23:33N 50°45' E 001°22'4410.7
2015-Apr-19 19:27N 50°23' E 000°22'62 7.7
2015-Apr-19 11:25N 50°07' W 001°12'  
2015-Apr-15 13:31N 39°26' W 009°50'1010.1
2015-Apr-15 12:33N 39°16' W 009°50'1010.3
2015-Apr-15 11:33N 39°05' W 009°50'1010.3
2015-Apr-15 10:32N 38°55' W 009°50'1210.3
2015-Apr-15 09:24N 38°43' W 009°50'8 9.8
2015-Apr-15 08:33N 38°35' W 009°48'1010.0
2015-Apr-15 07:33N 38°25' W 009°45'1010.1
2015-Apr-15 06:33N 38°16' W 009°42'1010.3
2015-Apr-15 05:33N 38°06' W 009°39'1010.2
2015-Apr-15 04:33N 37°56' W 009°36'10 9.9
2015-Apr-15 03:33N 37°46' W 009°33'10 9.5
2015-Apr-15 02:30N 37°36' W 009°31'76 8.4
2015-Apr-14 17:27N 36°37' W 008°31'146 8.5
2015-Apr-14 00:12N 35°58' W 005°37'14 8.7
2015-Apr-13 22:33N 36°03' W 005°20'230 9.2
2015-Apr-12 21:29N 36°38' W 000°38'9 9.3
2015-Apr-12 20:28N 36°39' W 000°26'8 9.0
2015-Apr-12 19:32N 36°40' W 000°16'13 9.4
2015-Apr-12 18:12N 36°41' W 000°00'6 9.7
2015-Apr-12 17:33N 36°42' E 000°08'1110.1
2015-Apr-12 16:30N 36°44' E 000°21'1110.3
2015-Apr-12 15:24N 36°45' E 000°35'12110.1
2015-Apr-12 03:27N 37°03' E 003°04'1310.0
2015-Apr-12 02:10N 37°04' E 003°20'2910.7
2015-Apr-11 23:26N 37°08' E 003°57'910.3
2015-Apr-11 22:31N 37°09' E 004°08'1513.4
2015-Apr-11 21:24N 37°12' E 004°27'6 6.3
2015-Apr-11 20:28N 37°12' E 004°34'108 9.9
2015-Apr-11 09:29N 37°29' E 006°49'8 8.2
2015-Apr-11 08:33N 37°30' E 006°58'  
Track history (hours):
 
Tides and Currents Weather Stations Pressure Air Temp Water Temp Dewpoint Dewpoint Depression Visibility Wind Speed Wind Dir Waves Ship Positions

Geervliet

Last reported at 2015-Apr-21 07:30 UTC. Time now 2015-Apr-21 11:37 UTC.
Position N 53°42' W 000°40'.

Length 86 m; draft 4.7 m.

Type: Cargo ship. MMSI: 246803000.

Date/timePositionNaut miles runAvg speedWind from/ knotsBaromVisibWave heightAir tempDewpointWater temp
2015-Apr-21 07:30N 53°42' W 000°40'7 7.2
2015-Apr-21 06:32N 53°42' W 000°28'8 8.6
2015-Apr-21 05:34N 53°43' W 000°14'9 8.7
2015-Apr-21 04:33N 53°37' W 000°04'8 8.4
2015-Apr-21 03:33N 53°33' E 000°09'5 4.7
2015-Apr-21 02:33N 53°32' E 000°17'5 5.2
2015-Apr-21 01:33N 53°30' E 000°25'6 5.8
2015-Apr-21 00:33N 53°28' E 000°34'6 6.1
2015-Apr-20 23:32N 53°26' E 000°44'7 6.5
2015-Apr-20 22:26N 53°23' E 000°55'6 5.9
2015-Apr-20 21:26N 53°19' E 001°03'5 5.5
2015-Apr-20 20:33N 53°17' E 001°10'5 4.7
2015-Apr-20 19:33N 53°15' E 001°17'5 4.8
2015-Apr-20 18:33N 53°13' E 001°24'6 5.8
2015-Apr-20 17:33N 53°10' E 001°33'6 6.5
2015-Apr-20 16:33N 53°08' E 001°43'7 7.3
2015-Apr-20 15:33N 53°05' E 001°54'8 7.6
2015-Apr-20 14:33N 52°59' E 002°03'7 7.2
2015-Apr-20 13:33N 52°53' E 002°09'7 7.3
2015-Apr-20 12:33N 52°46' E 002°12'9 8.6
2015-Apr-20 11:33N 52°38' E 002°14'8 7.7
2015-Apr-20 10:33N 52°30' E 002°13'7 7.3
2015-Apr-20 09:33N 52°23' E 002°13'7 7.3
2015-Apr-20 08:33N 52°15' E 002°12'8 8.2
2015-Apr-20 07:33N 52°07' E 002°11'10 9.5
2015-Apr-20 06:33N 51°58' E 002°10'1010.3
2015-Apr-20 05:33N 51°48' E 002°06'1111.0
2015-Apr-20 04:33N 51°38' E 001°58'1111.3
2015-Apr-20 03:33N 51°28' E 001°49'1211.9
2015-Apr-20 02:33N 51°17' E 001°41'1110.8
2015-Apr-20 01:34N 51°06' E 001°40'1312.9
2015-Apr-20 00:32N 50°57' E 001°26'1212.0
2015-Apr-19 23:33N 50°45' E 001°22'4410.7
2015-Apr-19 19:27N 50°23' E 000°22'62 7.7
2015-Apr-19 11:25N 50°07' W 001°12'  
2015-Apr-15 13:31N 39°26' W 009°50'1010.1
2015-Apr-15 12:33N 39°16' W 009°50'1010.3
2015-Apr-15 11:33N 39°05' W 009°50'1010.3
2015-Apr-15 10:32N 38°55' W 009°50'1210.3
2015-Apr-15 09:24N 38°43' W 009°50'8 9.8
2015-Apr-15 08:33N 38°35' W 009°48'1010.0
2015-Apr-15 07:33N 38°25' W 009°45'1010.1
2015-Apr-15 06:33N 38°16' W 009°42'1010.3
2015-Apr-15 05:33N 38°06' W 009°39'1010.2
2015-Apr-15 04:33N 37°56' W 009°36'10 9.9
2015-Apr-15 03:33N 37°46' W 009°33'10 9.5
2015-Apr-15 02:30N 37°36' W 009°31'76 8.4
2015-Apr-14 17:27N 36°37' W 008°31'146 8.5
2015-Apr-14 00:12N 35°58' W 005°37'14 8.7
2015-Apr-13 22:33N 36°03' W 005°20'230 9.2
2015-Apr-12 21:29N 36°38' W 000°38'9 9.3
2015-Apr-12 20:28N 36°39' W 000°26'8 9.0
2015-Apr-12 19:32N 36°40' W 000°16'13 9.4
2015-Apr-12 18:12N 36°41' W 000°00'6 9.7
2015-Apr-12 17:33N 36°42' E 000°08'1110.1
2015-Apr-12 16:30N 36°44' E 000°21'1110.3
2015-Apr-12 15:24N 36°45' E 000°35'12110.1
2015-Apr-12 03:27N 37°03' E 003°04'1310.0
2015-Apr-12 02:10N 37°04' E 003°20'2910.7
2015-Apr-11 23:26N 37°08' E 003°57'910.3
2015-Apr-11 22:31N 37°09' E 004°08'1513.4
2015-Apr-11 21:24N 37°12' E 004°27'6 6.3
2015-Apr-11 20:28N 37°12' E 004°34'108 9.9
2015-Apr-11 09:29N 37°29' E 006°49'8 8.2
2015-Apr-11 08:33N 37°30' E 006°58'  

Dump ship's entire track history